KGFL/GFL METAR and TAF weather

Enter ICAO airport designator
Station Type Date Time Source
KGFL METAR 2019/06/26 15:53 UTC NOAA

KGFL 261553Z AUTO VRB04KT 10SM CLR 26/16 A3001 RMK AO2 SLP161 T02560156


Station Type Date Time Source
KGFL Decoded METAR 2019/06/26 15:53 UTC NOAA

FLOYD BENNETT MEMORIAL AIRPORT , NY, United States (KGFL) 43-20N 073-37W 103M
Jun 26, 2019 - 11:53 AM EDT / 2019.06.26 1553 UTC
Wind: Variable at 5 MPH (4 KT):0
Visibility: 10 mile(s):0
Sky conditions: clear
Temperature: 78.1 F (25.6 C)
Dew Point: 60.1 F (15.6 C)
Relative Humidity: 53%
Pressure (altimeter): 30.01 in. Hg (1016 hPa)
ob: KGFL 261553Z AUTO VRB04KT 10SM CLR 26/16 A3001 RMK AO2 SLP161 T02560156
cycle: 16

Station Type Date Time Source
KGFL TAF 2019/06/26 12:33 UTC NOAA

TAF KGFL 261130Z 2612/2712 19004KT P6SM SKC
FM262100 18006KT P6SM VCTS SCT050CB PROB30 2622/2701 -TSRA BKN040CB
FM270300 VRB03KT P6SM SCT040 SCT250

Example: see airport list